createdAt,value
2018-12-30T00:00:02.896Z,99451.03
2018-12-30T00:02:33.389Z,99435.50
2018-12-30T00:05:04.754Z,99439.38
2018-12-30T00:07:35.477Z,99437.03
2018-12-30T00:10:06.417Z,99436.56
2018-12-30T00:12:36.927Z,99444.00
2018-12-30T00:15:09.752Z,99433.28
2018-12-30T00:17:40.312Z,99446.36
2018-12-30T00:20:11.625Z,99443.18
2018-12-30T00:22:42.184Z,99446.50
2018-12-30T00:25:15.488Z,99451.41
2018-12-30T00:27:46.271Z,99449.09
2018-12-30T00:30:16.807Z,99449.09
2018-12-30T00:32:47.455Z,99447.20
2018-12-30T00:35:19.164Z,99446.50
2018-12-30T00:37:50.608Z,99442.39
2018-12-30T00:40:21.881Z,99447.34
2018-12-30T00:42:52.381Z,99446.97
2018-12-30T00:45:23.063Z,99451.69
2018-12-30T00:47:53.638Z,99458.98
2018-12-30T00:50:24.159Z,99466.75
2018-12-30T00:52:55.257Z,99454.17
2018-12-30T00:55:25.819Z,99449.70
2018-12-30T00:57:56.369Z,99456.77
2018-12-30T01:00:26.928Z,99471.84
2018-12-30T01:02:57.482Z,99457.00
2018-12-30T01:05:28.297Z,99475.73
2018-12-30T01:07:58.824Z,99477.48
2018-12-30T01:10:29.562Z,99484.23
2018-12-30T01:13:00.145Z,99485.63
2018-12-30T01:15:31.423Z,99493.16
2018-12-30T01:18:02.202Z,99505.97
2018-12-30T01:20:32.695Z,99493.62
2018-12-30T01:23:03.252Z,99510.12
2018-12-30T01:25:33.782Z,99509.90
2018-12-30T01:28:04.350Z,99502.00
2018-12-30T01:30:34.874Z,99510.50
2018-12-30T01:33:05.431Z,99515.34
2018-12-30T01:35:35.969Z,99509.58
2018-12-30T01:38:06.509Z,99513.92
2018-12-30T01:40:41.928Z,99511.11
2018-12-30T01:43:15.718Z,99525.48
2018-12-30T01:45:46.275Z,99531.95
2018-12-30T01:48:16.815Z,99532.56
2018-12-30T01:50:47.341Z,99536.78
2018-12-30T01:53:18.943Z,99536.91
2018-12-30T01:55:50.293Z,99540.89
2018-12-30T01:58:20.826Z,99539.59
2018-12-30T02:00:51.383Z,99539.27
2018-12-30T02:03:22.282Z,99537.01
2018-12-30T02:05:52.834Z,99522.98
2018-12-30T02:08:23.426Z,99533.35
2018-12-30T02:10:54.022Z,99540.89
2018-12-30T02:13:24.624Z,99544.31
2018-12-30T02:15:55.215Z,99544.78
2018-12-30T02:18:25.801Z,99565.50
2018-12-30T02:20:58.323Z,99554.80
2018-12-30T02:23:29.475Z,99558.80
2018-12-30T02:26:00.007Z,99552.91
2018-12-30T02:28:30.547Z,99561.05
2018-12-30T02:31:03.081Z,99544.68
2018-12-30T02:33:33.360Z,99568.13
2018-12-30T02:36:04.661Z,99563.28
2018-12-30T02:38:35.902Z,99576.52
2018-12-30T02:41:08.993Z,99587.70
2018-12-30T02:43:40.583Z,99593.97
2018-12-30T02:46:11.019Z,99604.23
2018-12-30T02:48:41.616Z,99603.68
2018-12-30T02:51:12.145Z,99603.22
2018-12-30T02:53:44.044Z,99589.33
2018-12-30T02:56:14.603Z,99576.73
2018-12-30T02:58:45.767Z,99588.03
2018-12-30T03:01:16.314Z,99597.34
2018-12-30T03:03:48.230Z,99589.69
2018-12-30T03:06:18.917Z,99589.33
2018-12-30T03:08:49.459Z,99602.88
2018-12-30T03:11:19.963Z,99598.73
2018-12-30T03:13:50.533Z,99592.38
2018-12-30T03:16:21.074Z,99593.55
2018-12-30T03:18:53.149Z,99591.22
2018-12-30T03:21:23.751Z,99597.10
2018-12-30T03:23:54.943Z,99595.70
2018-12-30T03:26:26.496Z,99595.11
2018-12-30T03:28:58.056Z,99603.02
2018-12-30T03:31:28.603Z,99594.74
2018-12-30T03:34:02.621Z,99581.45
2018-12-30T03:36:33.137Z,99574.40
2018-12-30T03:39:04.208Z,99572.27
2018-12-30T03:41:34.759Z,99579.59
2018-12-30T03:44:05.461Z,99576.16
2018-12-30T03:46:35.976Z,99588.52
2018-12-30T03:49:06.525Z,99583.70
2018-12-30T03:51:37.106Z,99574.88
2018-12-30T03:54:07.625Z,99579.94
2018-12-30T03:56:38.173Z,99586.53
2018-12-30T03:59:08.677Z,99595.50
2018-12-30T04:01:41.534Z,99592.31
2018-12-30T04:04:14.160Z,99601.75
2018-12-30T04:06:44.724Z,99597.16
2018-12-30T04:09:15.271Z,99596.20
2018-12-30T04:11:45.829Z,99579.84
2018-12-30T04:14:16.325Z,99575.02
2018-12-30T04:16:46.851Z,99576.30
2018-12-30T04:19:17.405Z,99594.59
2018-12-30T04:21:47.877Z,99593.50
2018-12-30T04:24:18.352Z,99601.28
2018-12-30T04:26:48.882Z,99608.12
2018-12-30T04:29:19.416Z,99599.19
2018-12-30T04:31:49.968Z,99610.26
2018-12-30T04:34:20.526Z,99614.74
2018-12-30T04:36:51.047Z,99598.01
2018-12-30T04:39:21.597Z,99612.50
2018-12-30T04:41:52.129Z,99605.66
2018-12-30T04:44:22.674Z,99612.14
2018-12-30T04:46:53.236Z,99614.88
2018-12-30T04:49:23.785Z,99575.96
2018-12-30T04:51:54.325Z,99572.64
2018-12-30T04:54:25.083Z,99625.12
2018-12-30T04:56:55.584Z,99626.78
2018-12-30T04:59:26.044Z,99643.27
2018-12-30T05:01:57.240Z,99647.86
2018-12-30T05:04:28.395Z,99654.95
2018-12-30T05:06:59.000Z,99663.42
2018-12-30T05:09:29.536Z,99664.02
2018-12-30T05:12:01.301Z,99677.83
2018-12-30T05:14:31.902Z,99672.97
2018-12-30T05:17:02.428Z,99665.69
2018-12-30T05:19:33.062Z,99666.02
2018-12-30T05:22:03.554Z,99679.95
2018-12-30T05:24:34.065Z,99683.48
2018-12-30T05:27:04.624Z,99684.41
2018-12-30T05:29:35.177Z,99688.44
2018-12-30T05:32:05.726Z,99677.09
2018-12-30T05:34:36.233Z,99691.59
2018-12-30T05:37:07.123Z,99699.73
2018-12-30T05:39:37.624Z,99698.77
2018-12-30T05:42:08.217Z,99691.22
2018-12-30T05:44:39.372Z,99716.88
2018-12-30T05:47:13.448Z,99711.50
2018-12-30T05:49:43.987Z,99706.65
2018-12-30T05:52:14.477Z,99715.85
2018-12-30T05:54:45.105Z,99731.88
2018-12-30T05:57:20.013Z,99742.13
2018-12-30T05:59:50.526Z,99735.99
2018-12-30T06:02:21.073Z,99736.92
2018-12-30T06:04:51.599Z,99732.33
2018-12-30T06:07:22.188Z,99739.52
2018-12-30T06:09:52.804Z,99753.54
2018-12-30T06:12:24.426Z,99752.70
2018-12-30T06:14:54.991Z,99753.63
2018-12-30T06:17:25.510Z,99770.71
2018-12-30T06:19:56.072Z,99782.75
2018-12-30T06:22:26.555Z,99773.67
2018-12-30T06:24:57.077Z,99782.39
2018-12-30T06:27:27.714Z,99790.89
2018-12-30T06:29:58.257Z,99790.53
2018-12-30T06:32:28.837Z,99787.56
2018-12-30T06:34:59.396Z,99785.22
2018-12-30T06:37:29.935Z,99779.79
2018-12-30T06:40:00.515Z,99787.79
2018-12-30T06:42:31.025Z,99808.44
2018-12-30T06:45:01.566Z,99820.10
2018-12-30T06:47:32.080Z,99828.44
2018-12-30T06:50:02.728Z,99832.79
2018-12-30T06:52:33.240Z,99845.30
2018-12-30T06:55:03.828Z,99829.12
2018-12-30T06:57:34.328Z,99798.70
2018-12-30T07:00:05.262Z,99786.20
2018-12-30T07:02:35.808Z,99769.96
2018-12-30T07:05:06.461Z,99780.45
2018-12-30T07:07:36.979Z,99780.33
2018-12-30T07:10:07.585Z,99798.38
2018-12-30T07:12:38.093Z,99806.38
2018-12-30T07:15:08.688Z,99795.18
2018-12-30T07:17:39.210Z,99792.68
2018-12-30T07:20:09.871Z,99802.22
2018-12-30T07:22:40.434Z,99804.34
2018-12-30T07:25:10.965Z,99798.45
2018-12-30T07:27:41.537Z,99788.31
2018-12-30T07:30:12.074Z,99801.14
2018-12-30T07:32:42.609Z,99812.56
2018-12-30T07:35:13.195Z,99809.97
2018-12-30T07:37:43.691Z,99814.69
2018-12-30T07:40:14.265Z,99823.86
2018-12-30T07:42:44.808Z,99828.70
2018-12-30T07:45:15.329Z,99832.23
2018-12-30T07:47:45.905Z,99830.56
2018-12-30T07:50:16.494Z,99838.33
2018-12-30T07:52:47.075Z,99850.73
2018-12-30T07:55:21.923Z,99840.92
2018-12-30T07:57:56.917Z,99848.83
2018-12-30T08:00:29.967Z,99850.37
2018-12-30T08:03:00.518Z,99874.41
2018-12-30T08:05:32.044Z,99870.98
2018-12-30T08:08:02.465Z,99868.60
2018-12-30T08:10:33.055Z,99881.69
2018-12-30T08:13:03.574Z,99887.48
2018-12-30T08:15:34.275Z,99894.22
2018-12-30T08:18:04.781Z,99886.44
2018-12-30T08:20:35.316Z,99888.66
2018-12-30T08:23:05.881Z,99895.88
2018-12-30T08:25:36.437Z,99886.06
2018-12-30T08:28:07.062Z,99889.28
2018-12-30T08:30:37.738Z,99890.48
2018-12-30T08:33:08.396Z,99886.13
2018-12-30T08:35:42.104Z,99894.37
2018-12-30T08:38:14.340Z,99892.86
2018-12-30T08:40:45.244Z,99879.43
2018-12-30T08:43:17.248Z,99874.13
2018-12-30T08:45:49.726Z,99864.71
2018-12-30T08:48:20.242Z,99868.47
2018-12-30T08:50:50.755Z,99879.67
2018-12-30T08:53:29.172Z,99885.33
2018-12-30T08:55:53.766Z,99891.12
2018-12-30T08:58:24.375Z,99883.35
2018-12-30T09:00:54.920Z,99885.48
2018-12-30T09:03:25.462Z,99884.18
2018-12-30T09:05:56.056Z,99886.09
2018-12-30T09:08:28.068Z,99887.77
2018-12-30T09:10:58.604Z,99889.05
2018-12-30T09:13:29.204Z,99885.41
2018-12-30T09:15:59.749Z,99892.05
2018-12-30T09:18:30.328Z,99886.86
2018-12-30T09:21:00.842Z,99889.14
2018-12-30T09:23:37.228Z,99890.31
2018-12-30T09:26:03.682Z,99887.34
2018-12-30T09:28:34.171Z,99891.05
2018-12-30T09:31:04.795Z,99904.02
2018-12-30T09:33:35.279Z,99893.42
2018-12-30T09:36:07.346Z,99893.42
2018-12-30T09:38:37.875Z,99899.22
2018-12-30T09:41:08.438Z,99902.52
2018-12-30T09:43:38.979Z,99898.41
2018-12-30T09:46:09.560Z,99903.75
2018-12-30T09:48:40.142Z,99900.15
2018-12-30T09:51:10.726Z,99901.92
2018-12-30T09:53:45.092Z,99905.74
2018-12-30T09:56:13.782Z,99910.15
2018-12-30T09:58:44.639Z,99922.31
2018-12-30T10:01:15.196Z,99914.52
2018-12-30T10:03:45.703Z,99915.41
2018-12-30T10:06:16.244Z,99914.34
2018-12-30T10:08:46.800Z,99913.78
2018-12-30T10:11:17.364Z,99927.37
2018-12-30T10:13:48.394Z,99915.22
2018-12-30T10:16:22.956Z,99923.61
2018-12-30T10:18:54.361Z,99927.28
2018-12-30T10:21:26.365Z,99920.00
2018-12-30T10:23:57.128Z,99916.58
2018-12-30T10:26:27.707Z,99910.13
2018-12-30T10:28:58.212Z,99917.92
2018-12-30T10:31:28.803Z,99913.33
2018-12-30T10:33:59.367Z,99910.27
2018-12-30T10:36:29.899Z,99913.00
2018-12-30T10:39:00.444Z,99908.28
2018-12-30T10:41:30.956Z,99906.75
2018-12-30T10:44:01.538Z,99903.81
2018-12-30T10:46:33.752Z,99907.38
2018-12-30T10:49:04.301Z,99905.02
2018-12-30T10:51:34.884Z,99905.61
2018-12-30T10:54:05.376Z,99894.87
2018-12-30T10:56:35.937Z,99880.72
2018-12-30T10:59:06.511Z,99888.02
2018-12-30T11:01:39.441Z,99889.81
2018-12-30T11:04:09.940Z,99883.67
2018-12-30T11:06:40.495Z,99892.53
2018-12-30T11:09:11.016Z,99899.97
2018-12-30T11:11:41.559Z,99895.13
2018-12-30T11:14:12.101Z,99899.52
2018-12-30T11:16:42.623Z,99898.55
2018-12-30T11:19:13.187Z,99916.28
2018-12-30T11:21:43.768Z,99902.58
2018-12-30T11:24:14.342Z,99902.34
2018-12-30T11:26:44.922Z,99908.24
2018-12-30T11:29:15.409Z,99908.74
2018-12-30T11:31:45.986Z,99918.64
2018-12-30T11:34:16.529Z,99923.50
2018-12-30T11:36:47.125Z,99926.93
2018-12-30T11:39:18.142Z,99925.03
2018-12-30T11:41:48.685Z,99918.06
2018-12-30T11:44:19.213Z,99911.09
2018-12-30T11:46:49.821Z,99907.55
2018-12-30T11:49:22.049Z,99906.02
2018-12-30T11:51:52.605Z,99902.48
2018-12-30T11:54:23.139Z,99902.58
2018-12-30T11:56:53.670Z,99896.55
2018-12-30T11:59:24.198Z,99890.30
2018-12-30T12:01:54.708Z,99873.75
2018-12-30T12:04:25.281Z,99888.77
2018-12-30T12:06:55.814Z,99889.01
2018-12-30T12:09:26.366Z,99890.40
2018-12-30T12:11:56.894Z,99890.40
2018-12-30T12:14:27.471Z,99888.05
2018-12-30T12:16:58.003Z,99884.02
2018-12-30T12:19:28.536Z,99870.30
2018-12-30T12:21:59.131Z,99859.78
2018-12-30T12:24:29.681Z,99863.45
2018-12-30T12:27:00.221Z,99862.86
2018-12-30T12:29:30.755Z,99862.88
2018-12-30T12:32:01.321Z,99859.31
2018-12-30T12:34:31.885Z,99856.61
2018-12-30T12:37:02.429Z,99851.28
2018-12-30T12:39:32.963Z,99851.63
2018-12-30T12:42:03.506Z,99856.97
2018-12-30T12:44:34.066Z,99863.70
2018-12-30T12:47:04.601Z,99864.16
2018-12-30T12:49:35.125Z,99860.87
2018-12-30T12:52:05.661Z,99868.55
2018-12-30T12:54:36.153Z,99869.38
2018-12-30T12:57:06.717Z,99872.34
2018-12-30T12:59:37.306Z,99869.14
2018-12-30T13:02:07.852Z,99865.84
2018-12-30T13:04:38.372Z,99852.12
2018-12-30T13:07:08.942Z,99847.05
2018-12-30T13:09:39.482Z,99852.11
2018-12-30T13:12:10.058Z,99862.65
2018-12-30T13:14:40.605Z,99866.29
2018-12-30T13:17:11.137Z,99871.86
2018-12-30T13:19:41.658Z,99874.93
2018-12-30T13:22:12.181Z,99878.00
2018-12-30T13:24:42.724Z,99883.69
2018-12-30T13:27:13.326Z,99884.73
2018-12-30T13:29:43.833Z,99878.59
2018-12-30T13:32:14.428Z,99875.16
2018-12-30T13:34:44.963Z,99869.00
2018-12-30T13:37:15.536Z,99867.11
2018-12-30T13:39:46.094Z,99866.91
2018-12-30T13:42:16.577Z,99861.20
2018-12-30T13:44:47.206Z,99863.20
2018-12-30T13:47:20.111Z,99858.25
2018-12-30T13:49:51.907Z,99854.72
2018-12-30T13:52:23.111Z,99856.84
2018-12-30T13:54:53.637Z,99862.30
2018-12-30T13:57:24.260Z,99866.42
2018-12-30T13:59:54.835Z,99861.45
2018-12-30T14:02:25.348Z,99856.84
2018-12-30T14:04:55.881Z,99861.68
2018-12-30T14:07:26.440Z,99865.34
2018-12-30T14:09:56.996Z,99869.03
2018-12-30T14:12:27.561Z,99869.14
2018-12-30T14:14:58.151Z,99885.33
2018-12-30T14:17:31.452Z,99878.95
2018-12-30T14:20:01.977Z,99888.41
2018-12-30T14:22:35.170Z,99890.41
2018-12-30T14:25:06.291Z,99892.55
2018-12-30T14:27:36.840Z,99887.21
2018-12-30T14:30:08.804Z,99887.92
2018-12-30T14:32:39.346Z,99884.28
2018-12-30T14:35:15.926Z,99895.01
2018-12-30T14:37:42.168Z,99893.24
2018-12-30T14:40:12.721Z,99896.78
2018-12-30T14:42:43.231Z,99894.30
2018-12-30T14:45:13.809Z,99887.44
2018-12-30T14:47:44.367Z,99888.87
2018-12-30T14:50:14.945Z,99886.40
2018-12-30T14:52:45.530Z,99891.70
2018-12-30T14:55:18.885Z,99893.94
2018-12-30T14:57:51.925Z,99892.53
2018-12-30T15:00:22.655Z,99892.64
2018-12-30T15:02:53.167Z,99887.58
2018-12-30T15:05:23.759Z,99882.72
2018-12-30T15:07:54.329Z,99892.08
2018-12-30T15:10:24.895Z,99884.98
2018-12-30T15:12:55.402Z,99882.48
2018-12-30T15:15:25.947Z,99880.71
2018-12-30T15:17:56.531Z,99896.55
2018-12-30T15:20:27.083Z,99902.82
2018-12-30T15:22:57.680Z,99894.55
2018-12-30T15:25:28.187Z,99904.12
2018-12-30T15:27:58.715Z,99899.98
2018-12-30T15:30:29.247Z,99902.11
2018-12-30T15:32:59.803Z,99903.41
2018-12-30T15:35:31.599Z,99907.41
2018-12-30T15:38:02.098Z,99906.59
2018-12-30T15:40:32.703Z,99908.48
2018-12-30T15:43:03.396Z,99896.42
2018-12-30T15:45:33.946Z,99877.89
2018-12-30T15:48:04.530Z,99886.28
2018-12-30T15:50:35.059Z,99897.25
2018-12-30T15:53:05.612Z,99897.49
2018-12-30T15:55:36.254Z,99899.98
2018-12-30T15:58:06.820Z,99912.86
2018-12-30T16:00:37.347Z,99901.50
2018-12-30T16:03:07.887Z,99896.43
2018-12-30T16:05:38.419Z,99890.50
2018-12-30T16:08:08.967Z,99882.01
2018-12-30T16:10:39.543Z,99879.64
2018-12-30T16:13:11.467Z,99871.37
2018-12-30T16:15:41.972Z,99868.30
2018-12-30T16:18:14.950Z,99877.50
2018-12-30T16:20:45.471Z,99894.41
2018-12-30T16:23:16.050Z,99909.17
2018-12-30T16:25:48.947Z,99921.09
2018-12-30T16:28:19.490Z,99923.09
2018-12-30T16:30:50.021Z,99924.06
2018-12-30T16:33:20.594Z,99911.77
2018-12-30T16:35:51.948Z,99907.17
2018-12-30T16:38:22.472Z,99900.08
2018-12-30T16:40:53.004Z,99898.88
2018-12-30T16:43:23.566Z,99898.17
2018-12-30T16:45:54.141Z,99898.31
2018-12-30T16:48:25.925Z,99898.64
2018-12-30T16:50:56.479Z,99904.91
2018-12-30T16:53:27.076Z,99911.53
2018-12-30T16:55:57.669Z,99917.09
2018-12-30T16:58:28.307Z,99910.23
2018-12-30T17:00:58.843Z,99919.00
2018-12-30T17:03:29.505Z,99917.33
2018-12-30T17:06:00.081Z,99922.16
2018-12-30T17:08:30.686Z,99914.60
2018-12-30T17:11:01.352Z,99910.23
2018-12-30T17:13:33.576Z,99908.57
2018-12-30T17:16:07.005Z,99902.80
2018-12-30T17:18:37.603Z,99897.61
2018-12-30T17:21:08.203Z,99904.57
2018-12-30T17:23:38.805Z,99907.17
2018-12-30T17:26:09.315Z,99903.38
2018-12-30T17:28:39.913Z,99902.54
2018-12-30T17:31:10.445Z,99894.41
2018-12-30T17:33:41.040Z,99882.59
2018-12-30T17:36:14.630Z,99872.09
2018-12-30T17:38:45.228Z,99876.55
2018-12-30T17:41:15.737Z,99872.33
2018-12-30T17:43:46.266Z,99873.95
2018-12-30T17:46:18.282Z,99867.45
2018-12-30T17:48:49.210Z,99881.05
2018-12-30T17:51:19.800Z,99875.02
2018-12-30T17:53:50.336Z,99867.83
2018-12-30T17:56:20.853Z,99868.99
2018-12-30T17:58:53.102Z,99879.98
2018-12-30T18:01:23.659Z,99882.59
2018-12-30T18:03:54.168Z,99887.78
2018-12-30T18:06:24.769Z,99891.31
2018-12-30T18:08:55.331Z,99898.28
2018-12-30T18:11:25.918Z,99893.55
2018-12-30T18:13:56.408Z,99902.78
2018-12-30T18:16:26.943Z,99908.55
2018-12-30T18:18:57.565Z,99896.98
2018-12-30T18:21:30.220Z,99898.15
2018-12-30T18:24:00.825Z,99892.62
2018-12-30T18:26:37.770Z,99890.48
2018-12-30T18:29:03.735Z,99893.78
2018-12-30T18:31:34.262Z,99904.91
2018-12-30T18:34:04.831Z,99897.11
2018-12-30T18:36:35.402Z,99890.25
2018-12-30T18:39:08.011Z,99887.42
2018-12-30T18:41:41.209Z,99892.05
2018-12-30T18:44:13.441Z,99898.28
2018-12-30T18:46:44.029Z,99893.81
2018-12-30T18:49:14.612Z,99885.76
2018-12-30T18:51:45.095Z,99883.16
2018-12-30T18:54:15.735Z,99874.06
2018-12-30T18:56:47.535Z,99873.97
2018-12-30T18:59:18.150Z,99869.56
2018-12-30T19:01:48.697Z,99870.53
2018-12-30T19:04:22.007Z,99865.94
2018-12-30T19:06:52.580Z,99874.66
2018-12-30T19:09:23.156Z,99871.13
2018-12-30T19:11:53.710Z,99859.91
2018-12-30T19:14:24.257Z,99863.67
2018-12-30T19:16:57.786Z,99864.17
2018-12-30T19:19:28.358Z,99864.97
2018-12-30T19:21:58.918Z,99860.24
2018-12-30T19:24:29.441Z,99863.07
2018-12-30T19:26:59.987Z,99871.36
2018-12-30T19:29:30.514Z,99870.30
2018-12-30T19:32:01.076Z,99871.70
2018-12-30T19:34:31.618Z,99867.47
2018-12-30T19:37:02.211Z,99871.70
2018-12-30T19:39:32.770Z,99872.41
2018-12-30T19:42:03.304Z,99875.70
2018-12-30T19:44:33.865Z,99884.66
2018-12-30T19:47:04.433Z,99885.83
2018-12-30T19:49:35.085Z,99882.62
2018-12-30T19:52:05.591Z,99875.20
2018-12-30T19:54:36.158Z,99880.50
2018-12-30T19:57:06.725Z,99878.17
2018-12-30T19:59:37.356Z,99871.31
2018-12-30T20:02:07.913Z,99874.60
2018-12-30T20:04:40.766Z,99862.91
2018-12-30T20:07:10.782Z,99862.69
2018-12-30T20:09:41.342Z,99855.45
2018-12-30T20:12:12.939Z,99860.19
2018-12-30T20:14:43.612Z,99859.22
2018-12-30T20:17:14.142Z,99862.91
2018-12-30T20:19:44.744Z,99857.95
2018-12-30T20:22:15.309Z,99857.63
2018-12-30T20:24:45.854Z,99852.16
2018-12-30T20:27:16.892Z,99846.63
2018-12-30T20:29:47.477Z,99843.20
2018-12-30T20:32:18.047Z,99843.34
2018-12-30T20:34:50.236Z,99848.63
2018-12-30T20:37:20.714Z,99845.44
2018-12-30T20:39:51.284Z,99847.83
2018-12-30T20:42:21.828Z,99834.24
2018-12-30T20:44:52.461Z,99830.11
2018-12-30T20:47:25.344Z,99831.31
2018-12-30T20:49:55.873Z,99833.30
2018-12-30T20:52:26.371Z,99833.77
2018-12-30T20:54:56.956Z,99832.47
2018-12-30T20:57:27.568Z,99830.24
2018-12-30T20:59:59.406Z,99819.48
2018-12-30T21:02:29.975Z,99823.75
2018-12-30T21:05:00.543Z,99812.89
2018-12-30T21:07:31.168Z,99821.98
2018-12-30T21:10:01.742Z,99819.84
2018-12-30T21:12:32.301Z,99813.22
2018-12-30T21:15:02.813Z,99807.69
2018-12-30T21:17:33.359Z,99811.23
2018-12-30T21:20:03.878Z,99815.02
2018-12-30T21:22:34.439Z,99810.52
2018-12-30T21:25:05.334Z,99811.59
2018-12-30T21:27:35.854Z,99812.19
2018-12-30T21:30:09.079Z,99808.02
2018-12-30T21:32:39.683Z,99807.09
2018-12-30T21:35:10.189Z,99811.35
2018-12-30T21:37:40.830Z,99810.16
2018-12-30T21:40:11.349Z,99812.28
2018-12-30T21:42:45.095Z,99809.22
2018-12-30T21:45:15.617Z,99801.06
2018-12-30T21:47:46.236Z,99797.42
2018-12-30T21:50:16.834Z,99797.06
2018-12-30T21:52:47.442Z,99800.96
2018-12-30T21:55:17.983Z,99793.86
2018-12-30T21:57:48.458Z,99807.82
2018-12-30T22:00:21.359Z,99809.92
2018-12-30T22:02:51.965Z,99812.75
2018-12-30T22:05:22.460Z,99816.41
2018-12-30T22:07:53.024Z,99814.31
2018-12-30T22:10:23.692Z,99809.81
2018-12-30T22:12:54.218Z,99806.75
2018-12-30T22:15:24.771Z,99814.31
2018-12-30T22:17:55.324Z,99819.52
2018-12-30T22:20:28.824Z,99819.38
2018-12-30T22:22:59.405Z,99822.44
2018-12-30T22:25:30.049Z,99832.83
2018-12-30T22:28:00.591Z,99836.86
2018-12-30T22:30:31.189Z,99839.69
2018-12-30T22:33:01.724Z,99843.13
2018-12-30T22:35:32.270Z,99839.33
2018-12-30T22:38:02.850Z,99833.44
2018-12-30T22:40:33.378Z,99843.36
2018-12-30T22:43:03.929Z,99841.80
2018-12-30T22:45:36.816Z,99839.56
2018-12-30T22:48:07.351Z,99832.97
2018-12-30T22:50:37.931Z,99837.33
2018-12-30T22:53:08.483Z,99829.64
2018-12-30T22:55:39.054Z,99834.37
2018-12-30T22:58:09.642Z,99828.11
2018-12-30T23:00:57.893Z,99836.27
2018-12-30T23:03:29.560Z,99824.58
2018-12-30T23:06:00.071Z,99824.21
2018-12-30T23:08:30.644Z,99826.45
2018-12-30T23:11:01.222Z,99821.98
2018-12-30T23:13:34.331Z,99818.55
2018-12-30T23:16:10.035Z,99816.19
2018-12-30T23:18:40.558Z,99826.00
2018-12-30T23:21:11.139Z,99826.80
2018-12-30T23:23:41.772Z,99820.10
2018-12-30T23:26:12.290Z,99825.50
2018-12-30T23:28:42.882Z,99826.10
2018-12-30T23:31:13.402Z,99820.57
2018-12-30T23:33:43.999Z,99817.14
2018-12-30T23:36:14.496Z,99819.14
2018-12-30T23:38:45.042Z,99819.03
2018-12-30T23:41:15.567Z,99817.27
2018-12-30T23:43:46.116Z,99820.33
2018-12-30T23:46:19.968Z,99819.03
2018-12-30T23:48:50.473Z,99812.54
2018-12-30T23:51:21.029Z,99803.81
2018-12-30T23:53:53.621Z,99796.72
2018-12-30T23:56:24.187Z,99797.89
2018-12-30T23:58:54.732Z,99795.52
